Time;durP1;ratioP1;P1;durP2;ratioP2;P2;SDS_P1;SDS_P2;PMS_P1;PMS_P2;Temp;Humidity;BMP_temperature;BMP_pressure;BME280_temperature;BME280_humidity;BME280_pressure;Samples;Min_cycle;Max_cycle;Signal;HPM_P1;HPM_P2
2023/07/04 00:00:26;;;;;;;3.05;2.75;;;26.30;61.30;;;;;;5013643;28;20029;-73
2023/07/04 00:02:52;;;;;;;3.30;2.90;;;26.30;61.40;;;;;;5013585;28;20026;-74
2023/07/04 00:05:18;;;;;;;2.80;2.55;;;26.30;61.40;;;;;;5013723;28;20478;-75
2023/07/04 00:07:44;;;;;;;2.80;2.55;;;26.30;61.50;;;;;;5011984;28;20030;-74
2023/07/04 00:10:09;;;;;;;3.38;3.08;;;26.20;61.50;;;;;;5013255;28;20083;-74
2023/07/04 00:12:35;;;;;;;3.58;3.28;;;26.20;61.60;;;;;;5011640;28;20384;-74
2023/07/04 00:15:01;;;;;;;3.10;2.80;;;26.20;61.70;;;;;;5012004;28;20453;-75
2023/07/04 00:17:27;;;;;;;3.67;3.28;;;26.20;61.70;;;;;;5013241;28;20598;-74
2023/07/04 00:19:53;;;;;;;3.40;2.97;;;26.10;61.70;;;;;;5011555;28;20026;-74
2023/07/04 00:22:18;;;;;;;3.65;3.05;;;26.10;61.80;;;;;;5012362;28;20112;-75
2023/07/04 00:24:44;;;;;;;3.50;3.10;;;26.10;61.90;;;;;;5011663;28;20471;-74
2023/07/04 00:27:12;;;;;;;3.42;2.90;;;26.10;61.90;;;;;;5013000;28;20583;-74
2023/07/04 00:29:38;;;;;;;3.40;3.05;;;26.10;61.90;;;;;;5013319;28;20046;-74
2023/07/04 00:32:07;;;;;;;3.97;3.00;;;26.10;61.90;;;;;;5013221;28;20494;-73
2023/07/04 00:34:34;;;;;;;3.00;2.72;;;26.10;61.90;;;;;;5012858;28;20463;-74
2023/07/04 00:37:01;;;;;;;3.80;2.95;;;26.10;61.90;;;;;;5013263;28;20376;-74
2023/07/04 00:39:28;;;;;;;3.63;3.20;;;26.10;61.80;;;;;;5012852;28;20471;-74
2023/07/04 00:41:54;;;;;;;3.15;2.85;;;26.10;61.70;;;;;;5012802;28;20106;-74
2023/07/04 00:44:24;;;;;;;3.30;3.00;;;26.10;61.70;;;;;;5012760;28;20033;-73
2023/07/04 00:47:15;;;;;;;3.30;3.00;;;26.10;61.70;;;;;;5013056;28;20089;-74
2023/07/04 00:49:48;;;;;;;3.08;2.80;;;26.10;61.70;;;;;;5011665;28;20084;-75
2023/07/04 00:52:26;;;;;;;3.43;3.10;;;26.10;61.60;;;;;;5011369;28;20026;-73
2023/07/04 00:55:01;;;;;;;3.40;3.10;;;26.10;61.60;;;;;;5013020;28;20325;-73
2023/07/04 00:57:33;;;;;;;3.42;3.13;;;26.10;61.70;;;;;;5011728;28;20053;-72
2023/07/04 01:00:11;;;;;;;3.60;3.30;;;26.00;61.60;;;;;;5011702;28;20081;-73
2023/07/04 01:02:37;;;;;;;3.80;3.40;;;26.00;61.60;;;;;;5012759;28;20084;-74
2023/07/04 01:05:04;;;;;;;3.67;3.28;;;26.00;62.20;;;;;;5011370;28;20099;-73
2023/07/04 01:07:58;;;;;;;4.10;3.28;;;26.00;61.60;;;;;;5011286;28;20108;-74
2023/07/04 01:10:36;;;;;;;4.40;3.50;;;25.90;61.70;;;;;;5009258;28;20030;-74
2023/07/04 01:13:02;;;;;;;3.78;3.20;;;26.00;61.60;;;;;;5012560;28;20058;-74
2023/07/04 01:15:29;;;;;;;4.63;3.50;;;26.00;61.50;;;;;;5012652;28;20030;-74
2023/07/04 01:17:56;;;;;;;4.28;3.10;;;26.00;61.50;;;;;;5012743;28;20028;-73
2023/07/04 01:20:23;;;;;;;4.38;3.47;;;25.90;61.40;;;;;;5011503;28;20084;-75
2023/07/04 01:23:01;;;;;;;3.42;3.13;;;25.90;61.40;;;;;;5012860;28;20076;-74
2023/07/04 01:25:41;;;;;;;3.58;3.28;;;25.90;61.50;;;;;;5012233;28;20049;-74
2023/07/04 01:28:08;;;;;;;3.53;3.22;;;26.00;61.50;;;;;;5012572;28;20125;-74
2023/07/04 01:30:38;;;;;;;3.53;3.10;;;25.90;61.40;;;;;;5012633;28;20380;-73
2023/07/04 01:33:05;;;;;;;3.75;3.45;;;26.00;61.40;;;;;;5013330;28;20088;-73
2023/07/04 01:35:33;;;;;;;3.60;3.13;;;25.90;61.30;;;;;;5014942;28;20044;-74
2023/07/04 01:37:59;;;;;;;3.75;3.25;;;25.90;61.40;;;;;;5016060;28;20040;-73
2023/07/04 01:40:26;;;;;;;3.92;3.13;;;25.90;61.30;;;;;;5014824;28;20444;-74
2023/07/04 01:42:52;;;;;;;3.78;3.42;;;26.00;61.40;;;;;;5014650;28;20034;-75
2023/07/04 01:45:19;;;;;;;3.70;3.20;;;25.90;61.30;;;;;;5016197;28;20136;-75
2023/07/04 01:47:45;;;;;;;3.70;3.30;;;25.90;61.20;;;;;;5014370;28;20060;-74
2023/07/04 01:50:11;;;;;;;4.97;3.50;;;26.00;61.30;;;;;;5015749;28;20058;-74
2023/07/04 01:52:39;;;;;;;5.18;3.45;;;25.90;61.20;;;;;;5015638;28;20096;-74
2023/07/04 01:55:05;;;;;;;3.50;3.20;;;25.90;61.20;;;;;;5016065;28;20038;-73
2023/07/04 01:57:31;;;;;;;3.53;3.22;;;25.90;61.20;;;;;;5016048;28;20174;-74
2023/07/04 01:59:56;;;;;;;3.92;3.53;;;25.90;61.20;;;;;;5015710;28;20054;-75
2023/07/04 02:02:22;;;;;;;3.53;3.08;;;25.90;61.20;;;;;;5014232;28;20061;-74
2023/07/04 02:04:48;;;;;;;3.72;3.42;;;25.90;61.20;;;;;;5015378;28;20113;-75
2023/07/04 02:07:14;;;;;;;4.78;3.65;;;25.90;61.20;;;;;;5014305;28;20029;-74
2023/07/04 02:09:39;;;;;;;4.15;3.42;;;25.90;61.20;;;;;;5015555;28;20503;-73
2023/07/04 02:12:06;;;;;;;3.88;3.47;;;25.90;61.20;;;;;;5015600;28;20049;-73
2023/07/04 02:14:31;;;;;;;3.85;3.45;;;26.00;61.20;;;;;;5014019;28;20468;-75
2023/07/04 02:16:57;;;;;;;4.88;3.60;;;25.90;61.20;;;;;;5015310;28;20030;-74
2023/07/04 02:19:22;;;;;;;4.20;3.70;;;25.90;61.20;;;;;;5015181;28;20022;-73
2023/07/04 02:21:48;;;;;;;3.70;3.33;;;25.90;61.20;;;;;;5015123;28;20040;-74
2023/07/04 02:24:14;;;;;;;4.53;3.70;;;25.90;61.20;;;;;;5015237;28;20360;-73
2023/07/04 02:26:39;;;;;;;5.03;3.45;;;26.00;61.30;;;;;;5015197;28;20030;-74
2023/07/04 02:29:05;;;;;;;3.97;3.58;;;25.90;61.20;;;;;;5013753;28;20021;-74
2023/07/04 02:31:31;;;;;;;3.55;3.22;;;25.90;61.30;;;;;;5015163;28;20030;-73
2023/07/04 02:33:56;;;;;;;4.03;3.55;;;25.90;61.30;;;;;;5014777;28;20084;-73
2023/07/04 02:36:22;;;;;;;4.38;3.60;;;26.00;61.90;;;;;;5015137;28;20037;-74
2023/07/04 02:38:48;;;;;;;4.10;3.70;;;25.90;61.30;;;;;;5013640;28;20491;-74
2023/07/04 02:41:14;;;;;;;3.80;3.35;;;25.90;61.30;;;;;;5014629;28;20105;-73
2023/07/04 02:43:40;;;;;;;4.10;3.70;;;26.00;61.30;;;;;;5015078;28;20365;-75
2023/07/04 02:46:07;;;;;;;4.00;3.60;;;26.00;61.30;;;;;;5014712;28;20129;-73
2023/07/04 02:48:33;;;;;;;3.92;3.53;;;26.00;61.30;;;;;;5013264;28;20022;-74
2023/07/04 02:51:00;;;;;;;4.90;3.22;;;26.00;61.30;;;;;;5013204;28;20026;-74
2023/07/04 02:53:26;;;;;;;4.18;3.28;;;26.00;61.90;;;;;;5014547;28;20030;-73
2023/07/04 02:55:53;;;;;;;3.80;3.45;;;26.00;61.30;;;;;;5013375;28;20036;-74
2023/07/04 02:58:20;;;;;;;4.00;3.60;;;26.00;61.20;;;;;;5014733;28;20022;-75
2023/07/04 03:00:50;;;;;;;3.92;3.53;;;26.10;61.20;;;;;;5013214;28;20441;-75
2023/07/04 03:03:16;;;;;;;4.18;3.60;;;26.10;61.20;;;;;;5014515;28;20077;-73
2023/07/04 03:05:42;;;;;;;5.45;3.83;;;26.10;61.20;;;;;;5014124;28;20034;-73
2023/07/04 03:08:08;;;;;;;3.70;3.40;;;26.10;61.10;;;;;;5014257;28;20380;-73
2023/07/04 03:10:34;;;;;;;4.30;3.78;;;26.10;61.10;;;;;;5013023;28;20441;-74
2023/07/04 03:13:00;;;;;;;3.85;3.45;;;26.10;61.10;;;;;;5014050;28;20068;-74
2023/07/04 03:15:26;;;;;;;3.97;3.58;;;26.10;61.10;;;;;;5012764;28;20477;-74
2023/07/04 03:17:53;;;;;;;4.47;4.05;;;26.10;61.10;;;;;;5014087;28;20029;-74
2023/07/04 03:20:18;;;;;;;3.90;3.60;;;26.20;61.10;;;;;;5014477;28;20026;-75
2023/07/04 03:22:45;;;;;;;4.13;3.40;;;26.20;61.10;;;;;;5014228;28;20092;-74
2023/07/04 03:25:11;;;;;;;4.30;3.85;;;26.20;61.10;;;;;;5014113;28;20092;-74
2023/07/04 03:27:39;;;;;;;4.60;3.90;;;26.20;61.10;;;;;;5014175;28;20030;-74
2023/07/04 03:30:07;;;;;;;4.97;3.70;;;26.20;61.10;;;;;;5012817;28;20383;-74
2023/07/04 03:32:33;;;;;;;4.65;3.65;;;26.20;61.10;;;;;;5013665;28;20026;-75
2023/07/04 03:35:02;;;;;;;3.97;3.58;;;26.20;61.00;;;;;;5013874;28;20389;-74
2023/07/04 03:37:32;;;;;;;3.83;3.50;;;26.30;61.00;;;;;;5014212;28;20038;-74
2023/07/04 03:39:59;;;;;;;3.95;3.40;;;26.30;61.00;;;;;;5012504;28;20121;-75
2023/07/04 03:42:25;;;;;;;4.50;3.95;;;26.30;60.90;;;;;;5012394;28;20041;-74
2023/07/04 03:44:51;;;;;;;4.07;3.65;;;26.30;60.90;;;;;;5012080;28;20054;-74
2023/07/04 03:47:16;;;;;;;4.00;3.60;;;26.30;60.90;;;;;;5013457;28;20041;-74
2023/07/04 03:49:42;;;;;;;4.22;3.83;;;26.30;60.90;;;;;;5012394;28;20026;-75
2023/07/04 03:52:08;;;;;;;4.90;3.70;;;26.30;60.90;;;;;;5013644;28;20033;-75
2023/07/04 03:54:34;;;;;;;4.50;3.95;;;26.30;60.90;;;;;;5013265;28;20033;-73
2023/07/04 03:57:00;;;;;;;4.00;3.60;;;26.30;61.00;;;;;;5013379;28;20030;-74
2023/07/04 03:59:26;;;;;;;4.28;3.70;;;26.40;61.00;;;;;;5013523;28;20022;-75
2023/07/04 04:01:51;;;;;;;3.85;3.47;;;26.40;61.00;;;;;;5013154;28;20156;-75
2023/07/04 04:04:17;;;;;;;4.95;3.80;;;26.40;60.90;;;;;;5011915;28;20517;-74
2023/07/04 04:06:43;;;;;;;4.50;3.55;;;26.40;60.90;;;;;;5013277;28;20026;-74
2023/07/04 04:09:10;;;;;;;3.88;3.47;;;26.40;60.90;;;;;;5013242;28;20120;-75
2023/07/04 04:11:36;;;;;;;4.00;3.55;;;26.40;60.90;;;;;;5013231;28;20113;-74
2023/07/04 04:14:01;;;;;;;3.97;3.58;;;26.40;60.90;;;;;;5012891;28;20108;-74
2023/07/04 04:16:27;;;;;;;3.95;3.30;;;26.40;60.80;;;;;;5012911;28;20442;-75
2023/07/04 04:18:53;;;;;;;4.55;3.45;;;26.40;60.80;;;;;;5011774;28;20022;-74
2023/07/04 04:21:18;;;;;;;4.40;3.67;;;26.40;60.70;;;;;;5013231;28;20030;-75
2023/07/04 04:23:44;;;;;;;3.67;3.38;;;26.40;60.60;;;;;;5012999;28;20337;-75
2023/07/04 04:26:12;;;;;;;3.85;3.20;;;26.50;60.60;;;;;;5013079;28;20060;-74
2023/07/04 04:28:38;;;;;;;4.00;3.60;;;26.50;60.60;;;;;;5012677;28;20377;-74
2023/07/04 04:31:03;;;;;;;5.15;3.30;;;26.50;60.40;;;;;;5013269;28;20057;-75
2023/07/04 04:33:29;;;;;;;4.53;3.25;;;26.50;60.30;;;;;;5013043;28;20448;-75
2023/07/04 04:35:55;;;;;;;3.95;3.22;;;26.60;60.30;;;;;;5012684;28;20030;-74
2023/07/04 04:38:20;;;;;;;3.70;3.30;;;26.60;60.20;;;;;;5012878;28;20058;-74
2023/07/04 04:40:46;;;;;;;3.58;3.25;;;26.60;60.10;;;;;;5013200;28;20026;-74
2023/07/04 04:43:11;;;;;;;3.50;3.20;;;26.60;60.00;;;;;;5012740;28;20041;-74
2023/07/04 04:45:38;;;;;;;3.42;3.13;;;26.60;60.00;;;;;;5012767;28;20079;-74
2023/07/04 04:48:06;;;;;;;5.72;3.10;;;26.60;59.90;;;;;;5012534;28;20060;-75
2023/07/04 04:50:32;;;;;;;4.72;3.20;;;26.70;60.40;;;;;;5012470;28;20037;-75
2023/07/04 04:52:59;;;;;;;4.13;3.10;;;26.70;59.70;;;;;;5012711;28;20384;-76
2023/07/04 04:55:25;;;;;;;3.22;2.92;;;26.70;59.50;;;;;;5011374;28;20041;-74
2023/07/04 04:57:52;;;;;;;3.53;3.08;;;26.80;59.40;;;;;;5012281;28;20073;-74
2023/07/04 05:00:18;;;;;;;3.42;3.00;;;26.80;59.30;;;;;;5011241;28;20460;-74
2023/07/04 05:02:45;;;;;;;3.40;3.10;;;26.80;59.10;;;;;;5012598;28;20022;-75
2023/07/04 05:05:11;;;;;;;3.50;3.20;;;26.90;59.00;;;;;;5012535;28;20034;-73
2023/07/04 05:07:37;;;;;;;3.47;3.17;;;26.90;59.00;;;;;;5013901;28;20030;-75
2023/07/04 05:10:04;;;;;;;3.28;2.97;;;26.90;58.80;;;;;;5016619;28;20022;-74
2023/07/04 05:12:30;;;;;;;4.25;2.80;;;27.00;58.70;;;;;;5016380;28;20133;-75
2023/07/04 05:14:56;;;;;;;4.82;3.25;;;27.00;58.50;;;;;;5016297;28;20030;-75
2023/07/04 05:17:21;;;;;;;3.15;2.90;;;27.00;58.40;;;;;;5016404;28;20479;-75
2023/07/04 05:19:48;;;;;;;3.28;2.97;;;27.10;58.20;;;;;;5016221;28;20032;-75
2023/07/04 05:22:15;;;;;;;3.35;2.88;;;27.10;58.00;;;;;;5031394;28;20030;-74
2023/07/04 05:24:41;;;;;;;3.45;3.00;;;27.20;58.00;;;;;;5016064;28;20030;-73
2023/07/04 05:27:06;;;;;;;4.20;3.00;;;27.10;57.80;;;;;;5015780;28;20030;-74
2023/07/04 05:29:32;;;;;;;3.90;2.95;;;27.20;57.80;;;;;;5015953;28;20026;-75
2023/07/04 05:31:58;;;;;;;3.80;3.40;;;27.20;57.70;;;;;;5015910;28;20447;-75
2023/07/04 05:34:24;;;;;;;5.03;3.17;;;27.20;58.20;;;;;;5015964;28;20030;-74
2023/07/04 05:36:50;;;;;;;3.30;3.00;;;27.20;57.40;;;;;;5015818;28;20148;-74
2023/07/04 05:39:15;;;;;;;3.70;3.08;;;27.20;57.40;;;;;;5016011;28;20025;-75
2023/07/04 05:41:41;;;;;;;4.38;2.78;;;27.30;57.40;;;;;;5016003;28;20121;-73
2023/07/04 05:44:08;;;;;;;3.33;3.03;;;27.20;57.30;;;;;;5014813;28;20033;-74
2023/07/04 05:46:35;;;;;;;3.35;3.03;;;27.20;57.20;;;;;;5016261;28;20176;-75
2023/07/04 05:49:01;;;;;;;3.25;2.95;;;27.20;57.10;;;;;;5014680;28;20057;-75
2023/07/04 05:51:27;;;;;;;3.90;3.05;;;27.20;57.00;;;;;;5015558;28;20054;-75
2023/07/04 05:53:54;;;;;;;3.13;2.83;;;27.20;57.00;;;;;;5015434;28;20034;-75
2023/07/04 05:56:28;;;;;;;3.58;3.22;;;27.20;56.80;;;;;;5015409;28;20037;-75
2023/07/04 05:58:58;;;;;;;4.00;3.10;;;27.30;56.80;;;;;;5015927;28;20303;-74
2023/07/04 06:01:33;;;;;;;3.40;3.10;;;27.30;56.90;;;;;;5015570;28;20026;-74
2023/07/04 06:04:00;;;;;;;4.43;3.47;;;27.30;56.70;;;;;;5015153;28;20026;-75
2023/07/04 06:06:29;;;;;;;4.05;3.00;;;27.30;56.70;;;;;;5015111;28;20026;-74
2023/07/04 06:08:57;;;;;;;3.65;3.13;;;27.30;56.60;;;;;;5014723;28;20026;-74
2023/07/04 06:11:26;;;;;;;4.03;3.00;;;27.30;56.60;;;;;;5015501;28;20022;-74
2023/07/04 06:13:52;;;;;;;3.22;2.92;;;27.30;56.50;;;;;;5014025;28;20117;-75
2023/07/04 06:16:18;;;;;;;3.00;2.72;;;27.30;56.50;;;;;;5013938;28;20576;-75
2023/07/04 06:18:43;;;;;;;3.63;3.00;;;27.30;56.40;;;;;;5014745;28;20097;-75
2023/07/04 06:21:12;;;;;;;3.10;2.85;;;27.30;56.40;;;;;;5015201;28;20053;-74
2023/07/04 06:23:38;;;;;;;3.45;3.15;;;27.30;56.90;;;;;;5014046;28;20405;-75
2023/07/04 06:26:05;;;;;;;3.72;3.03;;;27.30;56.20;;;;;;5015271;28;20026;-74
2023/07/04 06:28:31;;;;;;;3.60;2.95;;;27.30;56.20;;;;;;5015079;28;20026;-75
2023/07/04 06:30:57;;;;;;;4.18;3.20;;;27.30;56.10;;;;;;5015000;28;20049;-75
2023/07/04 06:33:23;;;;;;;4.40;3.05;;;27.40;56.10;;;;;;5014728;28;20061;-75
2023/07/04 06:35:48;;;;;;;4.00;2.80;;;27.30;56.00;;;;;;5014867;28;20464;-74
2023/07/04 06:38:14;;;;;;;2.97;2.70;;;27.40;56.00;;;;;;5014818;28;20030;-75
2023/07/04 06:40:40;;;;;;;4.57;3.00;;;27.40;56.00;;;;;;5015153;28;20413;-76
2023/07/04 06:43:07;;;;;;;3.47;2.88;;;27.40;56.00;;;;;;5013455;28;20113;-74
2023/07/04 06:45:35;;;;;;;3.08;2.78;;;27.40;55.90;;;;;;5014900;28;20053;-75
2023/07/04 06:48:01;;;;;;;3.42;3.05;;;27.40;55.80;;;;;;5014765;28;20022;-74
2023/07/04 06:50:28;;;;;;;3.15;2.85;;;27.40;55.70;;;;;;5014383;28;20034;-74
2023/07/04 06:52:55;;;;;;;3.75;3.05;;;27.40;55.70;;;;;;5013274;28;20026;-74
2023/07/04 06:55:21;;;;;;;3.85;3.17;;;27.40;55.70;;;;;;5014635;28;20033;-74
2023/07/04 06:57:47;;;;;;;3.10;2.80;;;27.40;55.60;;;;;;5014586;28;20021;-74
2023/07/04 07:00:13;;;;;;;3.13;2.83;;;27.40;55.60;;;;;;5014578;28;20503;-74
2023/07/04 07:02:38;;;;;;;4.75;3.00;;;27.50;55.60;;;;;;5014089;28;20101;-75
2023/07/04 07:05:05;;;;;;;3.88;2.80;;;27.50;55.50;;;;;;5014041;28;20026;-75
2023/07/04 07:07:31;;;;;;;4.15;3.10;;;27.40;55.50;;;;;;5014194;28;20030;-74
2023/07/04 07:09:56;;;;;;;3.13;2.80;;;27.50;55.50;;;;;;5012948;28;20026;-75
2023/07/04 07:12:22;;;;;;;3.17;2.60;;;27.50;56.00;;;;;;5014452;28;20418;-74
2023/07/04 07:14:48;;;;;;;3.03;2.72;;;27.50;55.40;;;;;;5013989;28;20042;-76
2023/07/04 07:17:13;;;;;;;3.20;2.90;;;27.50;55.30;;;;;;5014260;28;20049;-75
2023/07/04 07:19:40;;;;;;;4.05;2.97;;;27.50;55.30;;;;;;5014030;28;20361;-76
2023/07/04 07:22:06;;;;;;;3.45;2.78;;;27.50;55.10;;;;;;5014571;28;20120;-76
2023/07/04 07:24:33;;;;;;;3.15;2.85;;;27.50;55.10;;;;;;5014112;28;20113;-75
2023/07/04 07:26:59;;;;;;;4.75;3.10;;;27.50;55.00;;;;;;5012772;28;20033;-74
2023/07/04 07:29:26;;;;;;;3.10;2.80;;;27.50;55.00;;;;;;5011958;28;20032;-74
2023/07/04 07:31:52;;;;;;;3.15;2.65;;;27.60;55.00;;;;;;5012063;28;20026;-74
2023/07/04 07:34:18;;;;;;;3.22;2.92;;;27.50;54.90;;;;;;5013804;28;20030;-74
2023/07/04 07:36:45;;;;;;;4.50;2.85;;;27.60;54.90;;;;;;5013894;28;20037;-75
2023/07/04 07:39:14;;;;;;;3.50;3.20;;;27.60;54.90;;;;;;5013916;28;20087;-75
2023/07/04 07:41:43;;;;;;;3.13;2.83;;;27.60;54.80;;;;;;5013765;28;20033;-73
2023/07/04 07:44:09;;;;;;;3.10;2.80;;;27.60;54.70;;;;;;5013715;28;20037;-74
2023/07/04 07:46:35;;;;;;;4.10;3.10;;;27.60;54.60;;;;;;5013431;28;20064;-75
2023/07/04 07:49:02;;;;;;;3.22;2.90;;;27.60;54.60;;;;;;5013362;28;20175;-75
2023/07/04 07:51:28;;;;;;;3.58;2.83;;;27.70;54.60;;;;;;5013402;28;20056;-74
2023/07/04 07:53:55;;;;;;;3.00;2.70;;;27.70;54.50;;;;;;5013166;28;20457;-75
2023/07/04 07:56:23;;;;;;;3.33;2.95;;;27.70;54.40;;;;;;5013125;28;20046;-75
2023/07/04 07:58:49;;;;;;;4.03;2.97;;;27.70;54.30;;;;;;5013475;28;20116;-75
2023/07/04 08:01:21;;;;;;;3.28;2.97;;;27.70;54.20;;;;;;5012930;28;20041;-75
2023/07/04 08:03:47;;;;;;;6.80;2.90;;;27.70;54.00;;;;;;5013520;28;20038;-73
2023/07/04 08:06:37;;;;;;;4.50;2.83;;;27.70;54.00;;;;;;5011774;28;20119;-74
2023/07/04 08:09:04;;;;;;;3.10;2.80;;;27.70;53.60;;;;;;5009267;28;20034;-75
2023/07/04 08:11:30;;;;;;;3.03;2.67;;;27.80;53.90;;;;;;5013091;28;20025;-75
2023/07/04 08:13:57;;;;;;;3.22;2.70;;;27.80;53.90;;;;;;5012766;28;20044;-75
2023/07/04 08:16:29;;;;;;;3.20;2.90;;;27.80;53.90;;;;;;5011488;28;20034;-75
2023/07/04 08:18:58;;;;;;;3.38;2.67;;;27.80;53.90;;;;;;5012916;28;20021;-75
2023/07/04 08:21:24;;;;;;;3.85;2.83;;;27.80;53.80;;;;;;5012794;28;20061;-74
2023/07/04 08:23:50;;;;;;;2.75;2.55;;;27.90;53.80;;;;;;5011680;28;20088;-75
2023/07/04 08:26:19;;;;;;;3.15;2.80;;;27.90;53.70;;;;;;5011459;28;20038;-75
2023/07/04 08:28:45;;;;;;;2.92;2.63;;;27.90;53.70;;;;;;5013004;28;20025;-75
2023/07/04 08:31:11;;;;;;;3.08;2.78;;;27.90;53.50;;;;;;5012991;28;20047;-74
2023/07/04 08:33:37;;;;;;;3.58;2.90;;;27.90;53.50;;;;;;5012706;28;20116;-74
2023/07/04 08:36:09;;;;;;;3.28;2.92;;;27.90;53.40;;;;;;5012772;28;20109;-76
2023/07/04 08:38:34;;;;;;;4.05;2.58;;;27.90;53.20;;;;;;5011452;28;20022;-75
2023/07/04 08:41:00;;;;;;;3.88;2.85;;;28.00;53.30;;;;;;5012366;28;20026;-75
2023/07/04 08:43:50;;;;;;;4.45;2.80;;;27.90;53.20;;;;;;5012640;28;20026;-75
2023/07/04 08:46:19;;;;;;;3.97;2.95;;;27.90;53.00;;;;;;5012681;28;20466;-75
2023/07/04 08:48:45;;;;;;;4.13;3.03;;;28.00;53.00;;;;;;5012705;28;20030;-76
2023/07/04 08:51:20;;;;;;;3.78;3.00;;;28.00;52.90;;;;;;5011391;28;20026;-76
2023/07/04 08:53:53;;;;;;;3.10;2.80;;;28.00;52.80;;;;;;5012796;28;20083;-75
2023/07/04 08:56:34;;;;;;;2.90;2.55;;;28.00;52.80;;;;;;5011486;28;20029;-75
2023/07/04 08:59:23;;;;;;;3.63;2.97;;;28.00;52.60;;;;;;5011487;28;20384;-75
2023/07/04 09:02:32;;;;;;;3.88;3.25;;;28.00;52.60;;;;;;5008306;28;20096;-76
2023/07/04 09:05:00;;;;;;;3.88;3.00;;;28.00;52.20;;;;;;5011479;28;20501;-74
2023/07/04 09:07:44;;;;;;;4.55;2.90;;;28.00;52.40;;;;;;5012404;28;20112;-75
2023/07/04 09:10:16;;;;;;;4.72;2.92;;;28.10;52.50;;;;;;5010952;28;20042;-73
2023/07/04 09:12:43;;;;;;;4.30;2.70;;;28.10;52.50;;;;;;5012569;28;20116;-74
2023/07/04 09:15:31;;;;;;;3.10;2.90;;;28.10;52.50;;;;;;5012450;28;20030;-75
2023/07/04 09:18:14;;;;;;;3.78;2.80;;;28.10;52.40;;;;;;5009535;28;20137;-75
2023/07/04 09:20:56;;;;;;;4.35;2.90;;;28.10;52.40;;;;;;5012305;28;20468;-74
2023/07/04 09:23:24;;;;;;;3.85;2.83;;;28.10;52.20;;;;;;5012620;28;20033;-75
2023/07/04 09:25:54;;;;;;;3.45;2.70;;;28.10;52.30;;;;;;5011355;28;20380;-75
2023/07/04 09:28:20;;;;;;;2.90;2.55;;;28.20;52.20;;;;;;5012430;28;20048;-75
2023/07/04 09:30:46;;;;;;;3.15;2.80;;;28.20;52.20;;;;;;5011483;28;20439;-74
2023/07/04 09:33:14;;;;;;;2.67;2.47;;;28.20;52.10;;;;;;5012674;28;20480;-74
2023/07/04 09:35:40;;;;;;;3.33;2.90;;;28.20;52.00;;;;;;5011011;28;20379;-74
2023/07/04 09:38:06;;;;;;;3.13;2.80;;;28.30;52.10;;;;;;5011482;28;20465;-75
2023/07/04 09:40:42;;;;;;;3.17;2.60;;;28.30;51.80;;;;;;5013558;28;20038;-75
2023/07/04 09:43:09;;;;;;;3.28;2.97;;;28.30;51.80;;;;;;5028063;28;20030;-74
2023/07/04 09:45:36;;;;;;;3.45;2.78;;;28.30;51.70;;;;;;5010792;28;20116;-74
2023/07/04 09:48:03;;;;;;;2.90;2.60;;;28.30;51.80;;;;;;5011989;28;20376;-75
2023/07/04 09:50:34;;;;;;;3.22;2.60;;;28.30;51.70;;;;;;5012524;28;20034;-75
2023/07/04 09:53:08;;;;;;;2.80;2.45;;;28.30;51.70;;;;;;5011001;28;20523;-75
2023/07/04 09:55:34;;;;;;;4.70;3.03;;;28.40;51.40;;;;;;5014248;28;20033;-75
2023/07/04 09:58:21;;;;;;;2.97;2.42;;;28.40;51.40;;;;;;5014144;28;20060;-75
2023/07/04 10:01:16;;;;;;;3.05;2.70;;;28.40;51.30;;;;;;5015605;28;20054;-75
2023/07/04 10:03:45;;;;;;;2.88;2.58;;;28.40;51.00;;;;;;5012858;28;20045;-75
2023/07/04 10:06:11;;;;;;;2.83;2.50;;;28.40;51.30;;;;;;5015296;28;20049;-75
2023/07/04 10:08:51;;;;;;;2.83;2.63;;;28.50;51.20;;;;;;5015285;28;20081;-75
2023/07/04 10:11:30;;;;;;;3.00;2.70;;;28.50;51.00;;;;;;5014080;28;20426;-74
2023/07/04 10:14:02;;;;;;;3.90;2.55;;;28.50;51.10;;;;;;5015393;28;20045;-76
2023/07/04 10:16:28;;;;;;;3.95;2.95;;;28.60;51.10;;;;;;5013870;28;20100;-75
2023/07/04 10:19:11;;;;;;;3.20;2.67;;;28.60;51.20;;;;;;5014994;28;20044;-75
2023/07/04 10:21:48;;;;;;;3.10;2.80;;;28.60;51.00;;;;;;5015268;28;20094;-75
2023/07/04 10:24:34;;;;;;;3.13;2.67;;;28.60;51.00;;;;;;5014110;28;20038;-76
2023/07/04 10:27:06;;;;;;;2.75;2.40;;;28.60;50.80;;;;;;5014758;28;20077;-75
2023/07/04 10:29:41;;;;;;;3.28;2.50;;;28.60;51.00;;;;;;5015162;28;20022;-75
2023/07/04 10:32:13;;;;;;;2.97;2.67;;;28.60;50.90;;;;;;5015393;28;20053;-76
2023/07/04 10:34:40;;;;;;;3.13;2.40;;;28.70;50.90;;;;;;5014960;28;20030;-75
2023/07/04 10:37:09;;;;;;;2.95;2.65;;;28.60;50.80;;;;;;5015110;28;20034;-74
2023/07/04 10:39:38;;;;;;;2.95;2.50;;;28.60;50.70;;;;;;5014862;28;20476;-75
2023/07/04 10:42:17;;;;;;;2.75;2.50;;;28.70;50.80;;;;;;5014693;28;20108;-76
2023/07/04 10:44:46;;;;;;;2.92;2.63;;;28.70;50.50;;;;;;5014826;28;20108;-75
2023/07/04 10:47:30;;;;;;;5.25;2.50;;;28.70;50.60;;;;;;5014325;28;20060;-76
2023/07/04 10:50:01;;;;;;;3.83;2.58;;;28.80;50.50;;;;;;5014904;28;20439;-74
2023/07/04 10:52:33;;;;;;;3.85;2.40;;;28.80;50.60;;;;;;5014638;28;20030;-75
2023/07/04 10:55:00;;;;;;;3.08;2.40;;;28.80;50.50;;;;;;5012985;28;20065;-76
2023/07/04 10:57:38;;;;;;;3.00;2.53;;;28.80;50.40;;;;;;5014559;28;20026;-76
2023/07/04 11:00:14;;;;;;;3.15;2.33;;;28.80;50.30;;;;;;5013289;28;20166;-74
2023/07/04 11:02:47;;;;;;;2.90;2.60;;;28.80;50.10;;;;;;5014141;28;20104;-74
2023/07/04 11:05:22;;;;;;;2.67;2.20;;;28.90;50.20;;;;;;5014312;28;20028;-75
2023/07/04 11:07:52;;;;;;;3.53;2.50;;;28.80;50.10;;;;;;5014063;28;20611;-76
2023/07/04 11:10:23;;;;;;;3.15;2.85;;;28.80;50.10;;;;;;5012945;28;20476;-75
2023/07/04 11:12:53;;;;;;;3.38;2.30;;;28.90;50.20;;;;;;5013978;28;20186;-75
2023/07/04 11:15:36;;;;;;;4.90;2.78;;;28.90;50.20;;;;;;5012663;28;20120;-75
2023/07/04 11:18:03;;;;;;;2.97;2.67;;;29.00;49.90;;;;;;5014010;28;20060;-75
2023/07/04 11:20:30;;;;;;;2.85;2.50;;;29.00;50.10;;;;;;5012670;28;20410;-74
2023/07/04 11:23:00;;;;;;;2.92;2.50;;;29.00;50.00;;;;;;5012641;28;20026;-75
2023/07/04 11:25:32;;;;;;;2.80;2.50;;;29.00;49.90;;;;;;5013854;28;20455;-76
2023/07/04 11:28:34;;;;;;;2.92;2.40;;;29.00;49.90;;;;;;5012714;28;20054;-76
2023/07/04 11:31:38;;;;;;;3.25;2.80;;;29.00;49.60;;;;;;5014127;28;20030;-75
2023/07/04 11:34:07;;;;;;;3.30;2.67;;;29.10;49.70;;;;;;4997631;28;20038;-75
2023/07/04 11:36:42;;;;;;;2.60;2.40;;;29.10;49.90;;;;;;5013988;28;20026;-75
2023/07/04 11:39:16;;;;;;;2.80;2.40;;;29.10;49.80;;;;;;5014311;28;20491;-75
2023/07/04 11:41:42;;;;;;;5.45;2.45;;;29.10;49.70;;;;;;5013506;28;20022;-75
2023/07/04 11:44:29;;;;;;;2.80;2.28;;;29.20;49.80;;;;;;5013414;28;20515;-75
2023/07/04 11:47:03;;;;;;;4.38;2.75;;;29.10;49.60;;;;;;5012308;28;20045;-75
2023/07/04 11:49:31;;;;;;;2.88;2.42;;;29.20;49.70;;;;;;5013448;28;20488;-76
2023/07/04 11:52:09;;;;;;;2.60;2.40;;;29.20;49.70;;;;;;5013505;28;20399;-74
2023/07/04 11:54:35;;;;;;;2.55;2.33;;;29.20;49.50;;;;;;5013339;28;20045;-75
2023/07/04 11:57:04;;;;;;;2.40;2.20;;;29.20;49.50;;;;;;5013391;28;20030;-75
2023/07/04 11:59:42;;;;;;;3.38;2.92;;;29.30;49.60;;;;;;5013204;28;20026;-75
2023/07/04 12:02:25;;;;;;;4.78;2.60;;;29.30;50.00;;;;;;5013192;28;20026;-75
2023/07/04 12:04:51;;;;;;;2.45;2.25;;;29.30;49.30;;;;;;5013408;28;20052;-75
2023/07/04 12:07:44;;;;;;;2.53;2.33;;;29.40;49.40;;;;;;5013186;28;20045;-74
2023/07/04 12:10:18;;;;;;;2.72;2.45;;;29.40;49.00;;;;;;5013316;28;20125;-76
2023/07/04 12:12:45;;;;;;;3.17;2.40;;;29.40;49.10;;;;;;5011845;28;20026;-76
2023/07/04 12:15:18;;;;;;;2.80;2.40;;;29.40;49.10;;;;;;5012906;28;20111;-75
2023/07/04 12:17:46;;;;;;;2.85;2.50;;;29.50;49.10;;;;;;5012347;28;20468;-75
2023/07/04 12:20:14;;;;;;;2.53;2.25;;;29.50;49.00;;;;;;5013242;28;20455;-75
2023/07/04 12:22:52;;;;;;;2.53;2.30;;;29.60;49.00;;;;;;5012944;28;20029;-75
2023/07/04 12:25:27;;;;;;;2.60;2.40;;;29.60;48.90;;;;;;5012958;28;20034;-75
2023/07/04 12:27:58;;;;;;;2.75;2.50;;;29.70;48.90;;;;;;5011682;28;20070;-75
2023/07/04 12:30:24;;;;;;;3.35;2.47;;;29.80;48.90;;;;;;5011479;28;20485;-75
2023/07/04 12:32:53;;;;;;;6.10;2.75;;;29.80;48.80;;;;;;5012772;28;20025;-74
2023/07/04 12:35:25;;;;;;;3.65;2.50;;;29.90;48.70;;;;;;5011414;28;20041;-75
2023/07/04 12:37:53;;;;;;;3.08;2.30;;;30.00;48.70;;;;;;5012693;28;20105;-75
2023/07/04 12:40:23;;;;;;;3.78;2.60;;;30.00;48.70;;;;;;5013315;28;20017;-74
2023/07/04 12:42:49;;;;;;;3.90;2.53;;;30.10;48.60;;;;;;5014015;28;20022;-75
2023/07/04 12:45:23;;;;;;;3.00;2.47;;;30.20;48.50;;;;;;5012384;28;20400;-75
2023/07/04 12:47:52;;;;;;;3.13;2.30;;;30.30;48.50;;;;;;5013240;28;20084;-76
2023/07/04 12:50:19;;;;;;;3.25;2.60;;;30.40;48.40;;;;;;5013334;28;20457;-75
2023/07/04 12:52:47;;;;;;;3.13;2.30;;;30.50;48.20;;;;;;5012935;28;20034;-75
2023/07/04 12:55:34;;;;;;;3.70;2.75;;;30.60;48.10;;;;;;5012930;28;20499;-75
2023/07/04 12:58:03;;;;;;;3.17;2.20;;;30.70;47.90;;;;;;5012127;28;20356;-74